createdAt,value
2022-10-06T00:01:27.471Z,12.80
2022-10-06T00:04:00.013Z,12.78
2022-10-06T00:06:32.198Z,12.75
2022-10-06T00:09:04.551Z,12.74
2022-10-06T00:11:37.840Z,12.72
2022-10-06T00:14:10.142Z,12.72
2022-10-06T00:16:42.469Z,12.69
2022-10-06T00:19:14.671Z,12.69
2022-10-06T00:21:47.029Z,12.68
2022-10-06T00:24:19.847Z,12.67
2022-10-06T00:26:52.125Z,12.66
2022-10-06T00:29:24.441Z,12.66
2022-10-06T00:31:57.295Z,12.64
2022-10-06T00:34:29.579Z,12.63
2022-10-06T00:37:01.852Z,12.60
2022-10-06T00:39:34.174Z,12.60
2022-10-06T00:42:06.566Z,12.59
2022-10-06T00:44:38.843Z,12.59
2022-10-06T00:47:11.172Z,12.57
2022-10-06T00:49:45.022Z,12.55
2022-10-06T00:52:20.234Z,12.53
2022-10-06T00:54:52.669Z,12.51
2022-10-06T00:57:25.196Z,12.51
2022-10-06T00:59:57.522Z,12.50
2022-10-06T01:02:36.063Z,12.48
2022-10-06T01:05:11.376Z,12.47
2022-10-06T01:07:43.902Z,12.44
2022-10-06T01:10:16.225Z,12.44
2022-10-06T01:12:48.580Z,12.43
2022-10-06T01:15:22.695Z,12.41
2022-10-06T01:18:01.212Z,12.39
2022-10-06T01:20:34.690Z,12.38
2022-10-06T01:23:10.369Z,12.36
2022-10-06T01:25:42.873Z,12.36
2022-10-06T01:28:16.300Z,12.35
2022-10-06T01:30:53.054Z,12.36
2022-10-06T01:33:27.373Z,12.36
2022-10-06T01:36:00.021Z,12.35
2022-10-06T01:38:32.750Z,12.35
2022-10-06T01:41:08.560Z,12.34
2022-10-06T01:43:41.105Z,12.32
2022-10-06T01:46:13.510Z,12.31
2022-10-06T01:48:46.593Z,12.29
2022-10-06T01:51:20.441Z,12.26
2022-10-06T01:53:52.692Z,12.24
2022-10-06T01:56:26.635Z,12.22
2022-10-06T01:58:58.874Z,12.21
2022-10-06T02:01:31.721Z,12.22
2022-10-06T02:04:04.132Z,12.22
2022-10-06T02:06:36.510Z,12.22
2022-10-06T02:09:09.828Z,12.22
2022-10-06T02:11:43.885Z,12.23
2022-10-06T02:14:18.197Z,12.24
2022-10-06T02:16:50.801Z,12.24
2022-10-06T02:19:23.316Z,12.23
2022-10-06T02:21:56.044Z,12.22
2022-10-06T02:24:28.391Z,12.22
2022-10-06T02:27:00.709Z,12.21
2022-10-06T02:29:33.081Z,12.21
2022-10-06T02:32:05.839Z,12.23
2022-10-06T02:34:38.125Z,12.23
2022-10-06T02:37:10.788Z,12.24
2022-10-06T02:39:43.252Z,12.24
2022-10-06T02:42:15.504Z,12.25
2022-10-06T02:44:48.244Z,12.25
2022-10-06T02:47:22.425Z,12.26
2022-10-06T02:49:54.756Z,12.26
2022-10-06T02:52:31.982Z,12.27
2022-10-06T02:55:05.075Z,12.27
2022-10-06T02:57:37.401Z,12.27
2022-10-06T03:00:12.640Z,12.29
2022-10-06T03:02:45.034Z,12.28
2022-10-06T03:05:17.798Z,12.29
2022-10-06T03:07:50.136Z,12.30
2022-10-06T03:10:23.258Z,12.31
2022-10-06T03:12:55.780Z,12.31
2022-10-06T03:15:28.887Z,12.31
2022-10-06T03:18:01.766Z,12.31
2022-10-06T03:20:34.075Z,12.29
2022-10-06T03:23:10.262Z,12.29
2022-10-06T03:25:45.516Z,12.29
2022-10-06T03:28:18.697Z,12.28
2022-10-06T03:30:51.087Z,12.29
2022-10-06T03:33:23.921Z,12.29
2022-10-06T03:36:03.796Z,12.30
2022-10-06T03:38:37.720Z,12.29
2022-10-06T03:41:12.089Z,12.28
2022-10-06T03:43:46.468Z,12.28
2022-10-06T03:46:20.925Z,12.26
2022-10-06T03:48:54.117Z,12.26
2022-10-06T03:51:31.404Z,12.28
2022-10-06T03:54:04.745Z,12.27
2022-10-06T03:56:39.947Z,12.24
2022-10-06T03:59:14.150Z,12.24
2022-10-06T04:01:49.401Z,12.24
2022-10-06T04:04:34.086Z,12.22
2022-10-06T04:07:10.362Z,12.21
2022-10-06T04:09:42.718Z,12.21
2022-10-06T04:12:16.250Z,12.21
2022-10-06T04:14:48.852Z,12.20
2022-10-06T04:17:21.132Z,12.21
2022-10-06T04:19:53.328Z,12.22
2022-10-06T04:22:25.663Z,12.22
2022-10-06T04:24:58.041Z,12.23
2022-10-06T04:27:30.492Z,12.23
2022-10-06T04:30:12.726Z,12.24
2022-10-06T04:32:45.930Z,12.23
2022-10-06T04:35:19.398Z,12.25
2022-10-06T04:37:52.038Z,12.26
2022-10-06T04:40:24.516Z,12.26
2022-10-06T04:42:57.571Z,12.25
2022-10-06T04:45:30.078Z,12.24
2022-10-06T04:48:02.530Z,12.24
2022-10-06T04:50:34.975Z,12.26
2022-10-06T04:53:13.813Z,12.28
2022-10-06T04:55:46.244Z,12.30
2022-10-06T04:58:18.585Z,12.34
2022-10-06T05:00:53.055Z,12.36
2022-10-06T05:03:25.721Z,12.39
2022-10-06T05:06:06.018Z,12.41
2022-10-06T05:08:38.636Z,12.44
2022-10-06T05:11:15.194Z,12.46
2022-10-06T05:13:52.976Z,12.49
2022-10-06T05:16:29.069Z,12.53
2022-10-06T05:19:08.013Z,12.57
2022-10-06T05:21:45.115Z,12.61
2022-10-06T05:24:22.778Z,12.64
2022-10-06T05:26:59.519Z,12.67
2022-10-06T05:29:35.385Z,12.70
2022-10-06T05:32:09.322Z,12.73
2022-10-06T05:34:42.488Z,12.76
2022-10-06T05:37:14.803Z,12.79
2022-10-06T05:39:47.823Z,12.84
2022-10-06T05:42:20.427Z,12.86
2022-10-06T05:44:53.017Z,12.89
2022-10-06T05:47:25.350Z,12.93
2022-10-06T05:49:57.616Z,12.96
2022-10-06T05:52:30.010Z,12.99
2022-10-06T05:55:02.987Z,13.02
2022-10-06T05:57:35.645Z,13.05
2022-10-06T06:00:11.197Z,13.08
2022-10-06T06:02:45.362Z,13.10
2022-10-06T06:05:19.272Z,13.14
2022-10-06T06:07:51.701Z,13.17
2022-10-06T06:10:24.157Z,13.21
2022-10-06T06:12:56.613Z,13.22
2022-10-06T06:16:01.999Z,13.22
2022-10-06T06:18:35.688Z,13.24
2022-10-06T06:21:10.712Z,13.26
2022-10-06T06:23:46.569Z,13.29
2022-10-06T06:26:23.620Z,13.33
2022-10-06T06:29:04.143Z,13.35
2022-10-06T06:31:39.863Z,13.38
2022-10-06T06:34:13.161Z,13.40
2022-10-06T06:36:52.205Z,13.42
2022-10-06T06:39:25.572Z,13.49
2022-10-06T06:41:58.369Z,13.60
2022-10-06T06:44:47.976Z,13.74
2022-10-06T06:47:40.244Z,13.87
2022-10-06T06:50:15.261Z,13.98
2022-10-06T06:52:47.566Z,14.11
2022-10-06T06:55:20.572Z,14.25
2022-10-06T06:57:54.925Z,14.38
2022-10-06T07:00:27.261Z,14.51
2022-10-06T07:03:00.959Z,14.61
2022-10-06T07:05:35.813Z,14.71
2022-10-06T07:08:09.952Z,14.79
2022-10-06T07:10:45.235Z,14.90
2022-10-06T07:13:18.668Z,15.02
2022-10-06T07:16:10.545Z,15.13
2022-10-06T07:19:00.326Z,15.25
2022-10-06T07:21:50.934Z,15.39
2022-10-06T07:24:42.163Z,15.53
2022-10-06T07:27:14.942Z,15.67
2022-10-06T07:29:47.338Z,15.80
2022-10-06T07:32:21.399Z,15.94
2022-10-06T07:34:55.431Z,16.10
2022-10-06T07:37:29.307Z,16.25
2022-10-06T07:40:02.779Z,16.33
2022-10-06T07:42:48.571Z,16.41
2022-10-06T07:45:42.555Z,16.53
2022-10-06T07:48:19.717Z,16.62
2022-10-06T07:50:56.725Z,16.71
2022-10-06T07:53:37.574Z,16.82
2022-10-06T07:56:20.685Z,16.91
2022-10-06T07:58:56.174Z,16.98
2022-10-06T08:01:30.155Z,17.06
2022-10-06T08:04:06.998Z,17.14
2022-10-06T08:06:39.662Z,17.22
2022-10-06T08:09:11.952Z,17.31
2022-10-06T08:11:45.224Z,17.37
2022-10-06T08:14:17.509Z,17.34
2022-10-06T08:16:49.869Z,17.22
2022-10-06T08:19:22.326Z,17.13
2022-10-06T08:21:54.573Z,17.06
2022-10-06T08:24:33.821Z,16.96
2022-10-06T08:27:14.813Z,16.87
2022-10-06T08:29:47.078Z,16.80
2022-10-06T08:32:20.161Z,16.75
2022-10-06T08:34:52.800Z,16.73
2022-10-06T08:37:26.946Z,16.71
2022-10-06T08:39:59.633Z,16.67
2022-10-06T08:42:39.848Z,16.65
2022-10-06T08:45:19.305Z,16.64
2022-10-06T08:47:56.531Z,16.62
2022-10-06T08:50:33.748Z,16.61
2022-10-06T08:53:15.480Z,16.65
2022-10-06T08:55:54.134Z,16.68
2022-10-06T08:58:38.527Z,16.71
2022-10-06T09:01:19.903Z,16.81
2022-10-06T09:03:54.345Z,16.95
2022-10-06T09:06:41.804Z,17.05
2022-10-06T09:09:29.389Z,17.11
2022-10-06T09:12:09.917Z,17.13
2022-10-06T09:14:45.610Z,17.16
2022-10-06T09:17:23.595Z,17.26
2022-10-06T09:20:01.615Z,17.40
2022-10-06T09:22:35.048Z,17.49
2022-10-06T09:25:20.252Z,17.52
2022-10-06T09:27:57.143Z,17.52
2022-10-06T09:30:29.850Z,17.51
2022-10-06T09:33:04.598Z,17.52
2022-10-06T09:35:36.455Z,17.54
2022-10-06T09:38:09.436Z,17.58
2022-10-06T09:40:49.639Z,17.59
2022-10-06T09:43:26.884Z,17.59
2022-10-06T09:46:23.049Z,17.62
2022-10-06T09:49:18.880Z,17.60
2022-10-06T09:52:18.522Z,17.60
2022-10-06T09:55:10.185Z,17.62
2022-10-06T09:57:51.458Z,17.63
2022-10-06T10:00:31.921Z,17.64
2022-10-06T10:03:07.304Z,17.66
2022-10-06T10:05:47.046Z,17.70
2022-10-06T10:08:24.416Z,17.84
2022-10-06T10:11:37.392Z,18.04
2022-10-06T10:14:19.752Z,18.27
2022-10-06T10:16:53.494Z,18.43
2022-10-06T10:19:32.970Z,18.59
2022-10-06T10:22:06.134Z,18.80
2022-10-06T10:24:55.235Z,18.97
2022-10-06T10:27:36.949Z,19.07
2022-10-06T10:30:14.850Z,19.20
2022-10-06T10:33:00.472Z,19.35
2022-10-06T10:35:38.874Z,19.50
2022-10-06T10:38:18.741Z,19.63
2022-10-06T10:40:56.580Z,19.76
2022-10-06T10:43:35.252Z,19.71
2022-10-06T10:46:16.996Z,19.61
2022-10-06T10:48:55.524Z,19.43
2022-10-06T10:51:33.461Z,19.32
2022-10-06T10:54:10.764Z,19.30
2022-10-06T11:33:15.189Z,19.80
2022-10-06T11:35:49.722Z,19.80
2022-10-06T11:38:24.940Z,19.89
2022-10-06T11:41:02.664Z,19.90
2022-10-06T11:43:43.508Z,19.81
2022-10-06T11:46:32.071Z,19.71
2022-10-06T11:49:49.529Z,19.64
2022-10-06T11:52:53.689Z,19.74
2022-10-06T11:55:29.150Z,19.88
2022-10-06T11:58:41.401Z,20.05
2022-10-06T12:01:08.942Z,20.28
2022-10-06T12:04:14.075Z,20.41
2022-10-06T12:07:00.990Z,20.64
2022-10-06T12:09:53.973Z,20.83
2022-10-06T12:13:07.111Z,20.97
2022-10-06T12:19:24.059Z,21.04
2022-10-06T12:22:08.702Z,20.97
2022-10-06T12:24:46.169Z,20.78
2022-10-06T12:27:32.083Z,20.53
2022-10-06T12:30:19.047Z,20.25
2022-10-06T12:32:56.328Z,20.00
2022-10-06T12:35:37.188Z,19.83
2022-10-06T12:38:45.614Z,19.77
2022-10-06T12:41:57.703Z,19.77
2022-10-06T12:44:35.452Z,19.82
2022-10-06T12:47:14.825Z,19.89
2022-10-06T12:49:58.666Z,19.99
2022-10-06T12:52:45.131Z,20.11
2022-10-06T12:55:34.760Z,20.21
2022-10-06T12:58:08.059Z,20.31
2022-10-06T13:00:43.024Z,20.37
2022-10-06T13:03:24.399Z,20.34
2022-10-06T13:06:00.709Z,20.19
2022-10-06T13:08:35.003Z,20.03
2022-10-06T13:11:22.267Z,19.96
2022-10-06T13:13:56.356Z,19.95
2022-10-06T13:16:32.114Z,19.95
2022-10-06T13:19:04.561Z,19.99
2022-10-06T13:21:36.931Z,20.04
2022-10-06T13:24:15.026Z,20.05
2022-10-06T13:26:48.625Z,20.05
2022-10-06T13:29:24.120Z,20.01
2022-10-06T13:31:57.954Z,19.98
2022-10-06T13:34:34.971Z,19.89
2022-10-06T13:37:07.506Z,19.79
2022-10-06T13:39:39.794Z,19.70
2022-10-06T13:42:17.902Z,19.61
2022-10-06T13:44:59.576Z,19.50
2022-10-06T13:47:33.178Z,19.44
2022-10-06T13:50:08.514Z,19.44
2022-10-06T13:52:42.499Z,19.41
2022-10-06T13:55:22.565Z,19.38
2022-10-06T13:58:10.109Z,19.35
2022-10-06T14:00:55.981Z,19.31
2022-10-06T14:06:19.028Z,19.30
2022-10-06T14:08:55.208Z,19.26
2022-10-06T14:11:30.437Z,19.17
2022-10-06T14:14:05.877Z,19.08
2022-10-06T14:16:38.213Z,19.03
2022-10-06T14:19:38.910Z,18.97
2022-10-06T14:22:32.508Z,18.90
2022-10-06T14:25:11.776Z,18.82
2022-10-06T14:27:44.026Z,18.76
2022-10-06T14:30:17.064Z,18.68
2022-10-06T14:32:49.825Z,18.59
2022-10-06T14:35:22.292Z,18.49
2022-10-06T14:37:54.474Z,18.37
2022-10-06T14:40:26.849Z,18.29
2022-10-06T14:42:59.092Z,18.22
2022-10-06T14:45:36.195Z,18.17
2022-10-06T14:48:08.672Z,18.11
2022-10-06T14:50:41.496Z,18.06
2022-10-06T14:53:17.622Z,18.02
2022-10-06T14:55:49.891Z,17.97
2022-10-06T14:58:22.129Z,17.92
2022-10-06T15:00:54.412Z,17.87
2022-10-06T15:03:26.863Z,17.82
2022-10-06T15:06:22.604Z,17.78
2022-10-06T15:08:57.475Z,17.71
2022-10-06T15:11:31.204Z,17.66
2022-10-06T15:14:04.236Z,17.62
2022-10-06T15:16:40.731Z,17.57
2022-10-06T15:19:14.004Z,17.52
2022-10-06T15:21:46.601Z,17.48
2022-10-06T15:24:21.376Z,17.44
2022-10-06T15:27:11.259Z,17.40
2022-10-06T15:29:43.574Z,17.36
2022-10-06T15:32:15.958Z,17.31
2022-10-06T15:34:48.181Z,17.27
2022-10-06T15:37:21.130Z,17.22
2022-10-06T15:39:53.392Z,17.17
2022-10-06T15:42:25.704Z,17.11
2022-10-06T15:44:57.957Z,17.06
2022-10-06T15:47:30.223Z,17.00
2022-10-06T15:50:03.650Z,16.95
2022-10-06T15:52:36.212Z,16.90
2022-10-06T15:55:10.649Z,16.85
2022-10-06T15:57:42.946Z,16.80
2022-10-06T16:00:17.641Z,16.73
2022-10-06T16:02:48.480Z,16.67
2022-10-06T16:05:47.408Z,16.62
2022-10-06T16:08:19.712Z,16.53
2022-10-06T16:10:53.548Z,16.46
2022-10-06T16:13:25.949Z,16.37
2022-10-06T16:15:58.533Z,16.27
2022-10-06T16:18:32.640Z,16.19
2022-10-06T16:21:04.992Z,16.10
2022-10-06T16:23:37.243Z,16.02
2022-10-06T16:26:09.565Z,15.95
2022-10-06T16:28:41.896Z,15.86
2022-10-06T16:31:14.182Z,15.78
2022-10-06T16:33:47.036Z,15.70
2022-10-06T16:36:19.916Z,15.62
2022-10-06T16:38:55.872Z,15.53
2022-10-06T16:41:28.255Z,15.43
2022-10-06T16:44:01.166Z,15.36
2022-10-06T16:46:34.205Z,15.27
2022-10-06T16:49:08.723Z,15.18
2022-10-06T16:51:43.003Z,15.10
2022-10-06T16:54:17.544Z,15.03
2022-10-06T16:56:52.785Z,14.97
2022-10-06T16:59:27.070Z,14.89
2022-10-06T17:01:59.281Z,14.82
2022-10-06T17:04:31.574Z,14.76
2022-10-06T17:07:04.376Z,14.70
2022-10-06T17:09:36.736Z,14.64
2022-10-06T17:12:09.027Z,14.60
2022-10-06T17:14:41.293Z,14.55
2022-10-06T17:17:13.585Z,14.51
2022-10-06T17:19:45.828Z,14.49
2022-10-06T17:22:18.072Z,14.46
2022-10-06T17:24:50.306Z,14.44
2022-10-06T17:27:23.841Z,14.43
2022-10-06T17:29:56.101Z,14.42
2022-10-06T17:32:28.421Z,14.42
2022-10-06T17:35:00.723Z,14.38
2022-10-06T17:37:35.130Z,14.35
2022-10-06T17:40:09.204Z,14.33
2022-10-06T17:42:42.107Z,14.30
2022-10-06T17:45:20.377Z,14.27
2022-10-06T17:47:53.819Z,14.24
2022-10-06T17:50:42.290Z,14.19
2022-10-06T17:53:14.800Z,14.14
2022-10-06T17:55:47.916Z,14.09
2022-10-06T17:58:29.741Z,14.05
2022-10-06T18:01:10.299Z,14.00
2022-10-06T18:03:46.756Z,13.96
2022-10-06T18:06:41.912Z,13.93
2022-10-06T18:09:15.235Z,13.89
2022-10-06T18:11:55.558Z,13.88
2022-10-06T18:14:33.642Z,13.88
2022-10-06T18:17:06.744Z,13.84
2022-10-06T18:19:40.435Z,13.81
2022-10-06T18:37:41.569Z,14.14
2022-10-06T18:40:14.986Z,13.99
2022-10-06T18:42:47.274Z,13.84
2022-10-06T18:45:39.563Z,13.69
2022-10-06T18:48:30.292Z,13.51
2022-10-06T18:51:06.431Z,13.34
2022-10-06T18:53:39.191Z,13.20
2022-10-06T18:56:11.218Z,13.08
2022-10-06T18:58:44.488Z,12.98
2022-10-06T19:01:16.951Z,12.89
2022-10-06T19:03:50.690Z,12.79
2022-10-06T19:06:22.991Z,12.71
2022-10-06T19:09:00.940Z,12.64
2022-10-06T19:11:46.097Z,12.59
2022-10-06T19:14:20.159Z,12.59
2022-10-06T19:16:59.032Z,12.53
2022-10-06T19:19:34.296Z,12.47
2022-10-06T19:22:07.470Z,12.42
2022-10-06T19:24:42.217Z,12.38
2022-10-06T19:27:15.267Z,12.33
2022-10-06T19:29:53.164Z,12.28
2022-10-06T19:32:27.219Z,12.22
2022-10-06T19:34:59.500Z,12.18
2022-10-06T19:37:33.519Z,12.11
2022-10-06T19:40:08.327Z,12.07
2022-10-06T19:42:51.291Z,12.03
2022-10-06T19:45:23.566Z,11.99
2022-10-06T19:47:57.502Z,11.95
2022-10-06T19:50:30.375Z,11.93
2022-10-06T19:53:04.775Z,11.96
2022-10-06T19:55:36.906Z,11.96
2022-10-06T19:58:09.071Z,11.95
2022-10-06T20:00:42.305Z,11.93
2022-10-06T20:03:14.335Z,11.91
2022-10-06T20:05:46.481Z,11.90
2022-10-06T20:08:18.597Z,11.88
2022-10-06T20:10:50.760Z,11.84
2022-10-06T20:13:22.911Z,11.80
2022-10-06T20:15:55.013Z,11.78
2022-10-06T20:18:27.208Z,11.76
2022-10-06T20:21:02.421Z,11.72
2022-10-06T20:23:34.468Z,11.70
2022-10-06T20:26:14.968Z,11.74
2022-10-06T20:28:47.568Z,11.73
2022-10-06T20:31:22.665Z,11.72
2022-10-06T20:33:58.146Z,11.70
2022-10-06T20:36:32.121Z,11.70
2022-10-06T20:39:31.135Z,11.69
2022-10-06T20:42:03.618Z,11.70
2022-10-06T20:44:36.054Z,11.68
2022-10-06T20:47:08.969Z,11.66
2022-10-06T20:49:42.618Z,11.63
2022-10-06T20:52:15.234Z,11.59
2022-10-06T20:54:47.280Z,11.56
2022-10-06T20:57:19.380Z,11.54
2022-10-06T20:59:52.649Z,11.58
2022-10-06T21:02:24.798Z,11.57
2022-10-06T21:04:57.590Z,11.56
2022-10-06T21:07:30.215Z,11.54
2022-10-06T21:10:02.390Z,11.52
2022-10-06T21:12:34.642Z,11.51
2022-10-06T21:15:07.648Z,11.49
2022-10-06T21:17:42.508Z,11.46
2022-10-06T21:20:15.053Z,11.43
2022-10-06T21:22:47.343Z,11.40
2022-10-06T21:25:19.719Z,11.37
2022-10-06T21:27:51.908Z,11.36
2022-10-06T21:30:24.543Z,11.40
2022-10-06T21:32:57.797Z,11.39
2022-10-06T21:35:30.067Z,11.37
2022-10-06T21:38:02.217Z,11.34
2022-10-06T21:40:38.532Z,11.33
2022-10-06T21:43:10.912Z,11.33
2022-10-06T21:45:47.434Z,11.31
2022-10-06T21:48:20.056Z,11.28
2022-10-06T21:50:58.509Z,11.26
2022-10-06T21:53:32.967Z,11.21
2022-10-06T21:56:05.330Z,11.18
2022-10-06T21:58:37.635Z,11.16
2022-10-06T22:01:14.032Z,11.15
2022-10-06T22:03:46.535Z,11.19
2022-10-06T22:06:20.111Z,11.18
2022-10-06T22:08:52.835Z,11.16
2022-10-06T22:11:27.373Z,11.13
2022-10-06T22:14:01.524Z,11.12
2022-10-06T22:16:35.579Z,11.11
2022-10-06T22:19:09.816Z,11.09
2022-10-06T22:21:43.844Z,11.05
2022-10-06T22:24:17.968Z,11.02
2022-10-06T22:26:50.888Z,10.97
2022-10-06T22:29:23.713Z,10.91
2022-10-06T22:31:56.181Z,10.91
2022-10-06T22:34:29.849Z,10.95
2022-10-06T22:37:01.999Z,10.96
2022-10-06T22:39:34.560Z,10.95
2022-10-06T22:42:06.992Z,10.91
2022-10-06T22:44:39.074Z,10.89
2022-10-06T22:47:11.188Z,10.85
2022-10-06T22:49:43.325Z,10.81
2022-10-06T22:52:15.421Z,10.78
2022-10-06T22:54:47.586Z,10.75
2022-10-06T22:57:19.748Z,10.72
2022-10-06T22:59:51.957Z,10.71
2022-10-06T23:02:24.091Z,10.75
2022-10-06T23:04:56.276Z,10.75
2022-10-06T23:07:28.433Z,10.74
2022-10-06T23:10:00.568Z,10.72
2022-10-06T23:12:32.663Z,10.70
2022-10-06T23:15:05.363Z,10.67
2022-10-06T23:17:38.025Z,10.64
2022-10-06T23:20:13.073Z,10.60
2022-10-06T23:22:45.228Z,10.56
2022-10-06T23:25:17.523Z,10.50
2022-10-06T23:27:49.670Z,10.48
2022-10-06T23:30:21.860Z,10.51
2022-10-06T23:32:53.937Z,10.53
2022-10-06T23:35:26.131Z,10.52
2022-10-06T23:37:58.243Z,10.49
2022-10-06T23:40:30.539Z,10.48
2022-10-06T23:43:02.794Z,10.47
2022-10-06T23:45:35.030Z,10.44
2022-10-06T23:48:07.147Z,10.41
2022-10-06T23:50:39.291Z,10.37
2022-10-06T23:53:11.841Z,10.35
2022-10-06T23:55:44.001Z,10.38
2022-10-06T23:58:16.623Z,10.40
